Weather observations for the past three days for
Fernandina Beach Municipal Airport
| Date | Time (edt) | Wind (mph) | Vis. (mi.) | Weather | Sky Cond. | Temperature (ºF) | Relative Humidity | Wind Chill (°F) | Heat Index (°F) | Pressure | Precipitation (in) | ||||||
|---|---|---|---|---|---|---|---|---|---|---|---|---|---|---|---|---|---|
| Air | Dwpt | 6 hour | altimeter (in) | sea level (mb) | 1 hr | 3 hr | 6 hr | ||||||||||
| Max. | Min. | ||||||||||||||||
| 04 | 01:15 | SE 5 | 10.00 | Fair | CLR | 66.2 | 55.4 | 68% | 30.1 | 0.0 | |||||||
| 04 | 00:55 | SE 7 | 10.00 | Fair | CLR | 66.2 | 55.4 | 68% | 30.1 | 0.0 | |||||||
| 04 | 00:35 | SE 7 | 10.00 | Fair | CLR | 66.2 | 55.4 | 68% | 30.1 | 0.0 | |||||||
| 04 | 00:15 | SE 7 | 10.00 | Fair | CLR | 66.2 | 55.4 | 68% | 30.1 | 0.0 | |||||||
| 03 | 23:55 | SE 7 | 10.00 | Fair | CLR | 66.2 | 55.4 | 68% | 30.1 | 0.0 | |||||||
| 03 | 23:35 | SE 7 | 10.00 | Fair | CLR | 66.2 | 55.4 | 68% | 30.1 | 0.0 | |||||||
| 03 | 23:15 | SE 8 | 10.00 | Fair | CLR | 66.2 | 55.4 | 68% | 30.1 | 0.0 | |||||||
| 03 | 22:55 | SE 8 | 10.00 | Fair | CLR | 66.2 | 55.4 | 68% | 30.11 | 0.0 | |||||||
| 03 | 22:35 | E 9 | 10.00 | Fair | CLR | 66.2 | 55.4 | 68% | 30.1 | 0.0 | |||||||
| 03 | 22:15 | E 7 | 10.00 | Fair | CLR | 66.2 | 55.4 | 68% | 30.1 | 0.0 | |||||||
| 03 | 21:55 | E 9 | 10.00 | Fair | CLR | 66.2 | 53.6 | 64% | 30.09 | 0.0 | |||||||
| 03 | 21:35 | E 10 | 10.00 | Fair | CLR | 66.2 | 53.6 | 64% | 30.08 | 0.0 | |||||||
| 03 | 21:15 | E 9 | 10.00 | Fair | CLR | 66.2 | 53.6 | 64% | 30.07 | 0.0 | |||||||
| 03 | 20:55 | E 8 | 10.00 | Fair | CLR | 66.2 | 53.6 | 64% | 30.07 | 0.0 | |||||||
| 03 | 20:35 | E 9 | 10.00 | Fair | CLR | 66.2 | 51.8 | 60% | 30.07 | 0.0 | |||||||
| 03 | 20:15 | E 8 | 10.00 | Fair | CLR | 66.2 | 51.8 | 60% | 30.07 | 0.0 | |||||||
| 03 | 19:55 | E 7 | 10.00 | Fair | CLR | 66.2 | 51.8 | 60% | 30.07 | 0.0 | |||||||
| 03 | 19:35 | E 7 | 10.00 | Fair | CLR | 68 | 51.8 | 56% | 30.07 | 0.0 | |||||||
| 03 | 19:15 | E 9 | 10.00 | Fair | CLR | 68 | 51.8 | 56% | 30.07 | 0.0 | |||||||
| 03 | 18:55 | E 6 | 10.00 | Fair | CLR | 68 | 50 | 53% | 30.07 | 0.0 | |||||||
| 03 | 18:35 | E 8 | 10.00 | Fair | CLR | 68 | 50 | 53% | 30.07 | 0.0 | |||||||
| 03 | 18:15 | E 9 | 10.00 | Fair | CLR | 69.8 | 50 | 50% | 30.07 | 0.0 | |||||||
| 03 | 17:55 | E 9 | 10.00 | Fair | CLR | 69.8 | 50 | 50% | 30.07 | 0.0 | |||||||
| 03 | 17:35 | E 10 | 10.00 | Fair | CLR | 71.6 | 51.8 | 50% | 30.07 | 0.0 | |||||||
| 03 | 17:15 | E 12 | 10.00 | Fair | CLR | 69.8 | 51.8 | 53% | 30.07 | 0.0 | |||||||
| 03 | 16:55 | E 10 | 10.00 | Fair | CLR | 69.8 | 51.8 | 53% | 30.07 | 0.0 | |||||||
| 03 | 16:35 | E 12 | 10.00 | Fair | CLR | 69.8 | 51.8 | 53% | 30.07 | 0.0 | |||||||
| 03 | 16:15 | E 12 | 10.00 | Fair | CLR | 71.6 | 51.8 | 50% | 30.08 | 0.0 | |||||||
| 03 | 15:55 | E 14 | 10.00 | Fair | CLR | 69.8 | 51.8 | 53% | 30.09 | 0.0 | |||||||
| 03 | 15:35 | E 10 | 10.00 | Fair | CLR | 71.6 | 53.6 | 53% | 30.1 | 0.0 | |||||||
| 03 | 15:15 | E 14 | 10.00 | Fair | CLR | 71.6 | 53.6 | 53% | 30.11 | 0.0 | |||||||
| 03 | 14:55 | NE 12 G 21 | 10.00 | Fair | CLR | 71.6 | 53.6 | 53% | 30.12 | 0.0 | |||||||
| 03 | 14:35 | E 8 G 18 | 10.00 | Fair | CLR | 71.6 | 53.6 | 53% | 30.12 | 0.0 | |||||||
| 03 | 14:15 | E 12 | 10.00 | Fair | CLR | 71.6 | 53.6 | 53% | 30.12 | 0.0 | |||||||
| 03 | 13:55 | E 10 G 17 | 10.00 | Partly Cloudy | SCT050 | 71.6 | 53.6 | 53% | 30.13 | 0.0 | |||||||
| 03 | 13:35 | E 12 | 10.00 | Partly Cloudy | SCT034 SCT042 | 69.8 | 53.6 | 57% | 30.13 | 0.0 | |||||||
| 03 | 13:15 | NE 10 | 10.00 | Partly Cloudy | SCT034 SCT042 | 69.8 | 53.6 | 57% | 30.13 | 0.0 | |||||||
| 03 | 12:55 | NE 10 | 10.00 | Partly Cloudy | SCT031 SCT043 | 69.8 | 53.6 | 57% | 30.14 | 0.0 | |||||||
| 03 | 12:35 | NE 7 | 10.00 | Partly Cloudy | SCT033 SCT043 | 69.8 | 53.6 | 57% | 30.14 | 0.0 | |||||||
| 03 | 12:15 | NE 13 | 10.00 | Fair | CLR | 69.8 | 53.6 | 57% | 30.14 | 0.0 | |||||||
| 03 | 11:55 | NE 15 | 10.00 | Fair | CLR | 69.8 | 53.6 | 57% | 30.13 | 0.0 | |||||||
| 03 | 11:35 | NE 13 | 10.00 | Fair | CLR | 69.8 | 53.6 | 57% | 30.14 | 0.0 | |||||||
| 03 | 11:15 | NE 14 | 10.00 | Partly Cloudy | SCT030 | 68 | 51.8 | 56% | 30.14 | 0.0 | |||||||
| 03 | 10:35 | NE 14 | 10.00 | Mostly Cloudy | BKN024 BKN032 BKN048 | 68 | 53.6 | 60% | 30.13 | 0.0 | |||||||
| 03 | 10:15 | NE 12 | 10.00 | Mostly Cloudy | SCT022 BKN035 BKN042 | 66.2 | 55.4 | 68% | 30.13 | 0.0 | |||||||
| 03 | 09:55 | N 10 | 10.00 | Mostly Cloudy | BKN017 BKN025 | 64.4 | 55.4 | 73% | 30.12 | 0.0 | |||||||
| 03 | 09:35 | N 7 | 10.00 | Mostly Cloudy | BKN017 | 64.4 | 57.2 | 78% | 30.11 | 0.0 | |||||||
| 03 | 09:15 | N 9 | 10.00 | Partly Cloudy | SCT014 SCT019 | 64.4 | 57.2 | 78% | 30.1 | 0.0 | |||||||
| 03 | 08:55 | N 8 | 10.00 | Partly Cloudy | SCT013 | 62.6 | 57.2 | 83% | 30.1 | 0.0 | |||||||
| 03 | 08:35 | N 10 | 10.00 | Fair | CLR | 60.8 | 57.2 | 88% | 30.1 | 0.0 | |||||||
| 03 | 08:15 | N 9 | 10.00 | Fair | CLR | 60.8 | 55.4 | 83% | 30.1 | 0.0 | |||||||
| 03 | 07:55 | N 9 | 10.00 | Partly Cloudy | SCT013 | 59 | 55.4 | 88% | 30.09 | 0.0 | |||||||
| 03 | 07:35 | N 8 | 10.00 | Partly Cloudy | SCT013 | 57.2 | 53.6 | 88% | 30.09 | 0.0 | |||||||
| 03 | 07:15 | N 8 | 10.00 | Partly Cloudy | SCT010 | 57.2 | 55.4 | 94% | 30.08 | 0.0 | |||||||
| 03 | 06:55 | N 8 | 10.00 | Partly Cloudy | SCT010 | 57.2 | 55.4 | 94% | 30.08 | 0.0 | |||||||
| 03 | 06:35 | N 9 | 10.00 | Fair | CLR | 57.2 | 53.6 | 88% | 30.06 | 0.0 | |||||||
| 03 | 06:15 | N 8 | 10.00 | Fair | CLR | 57.2 | 53.6 | 88% | 30.06 | 0.0 | |||||||
| 03 | 05:55 | NW 7 | 10.00 | Fair | CLR | 57.2 | 55.4 | 94% | 30.06 | 0.0 | |||||||
| 03 | 05:35 | NW 7 | 10.00 | Partly Cloudy | SCT005 | 57.2 | 55.4 | 94% | 30.04 | 0.0 | |||||||
| 03 | 05:15 | NW 7 | 10.00 | Partly Cloudy | SCT005 | 57.2 | 55.4 | 94% | 30.04 | 0.0 | |||||||
| 03 | 04:55 | N 6 | 10.00 | Partly Cloudy | SCT007 | 57.2 | 55.4 | 94% | 30.04 | 0.0 | |||||||
| 03 | 04:35 | NW 7 | 10.00 | Fair | CLR | 57.2 | 55.4 | 94% | 30.04 | 0.0 | |||||||
| 03 | 04:15 | N 6 | 10.00 | Fair | CLR | 57.2 | 55.4 | 94% | 30.03 | 0.0 | |||||||
| 03 | 03:55 | NW 6 | 10.00 | Fair | CLR | 57.2 | 55.4 | 94% | 30.04 | 0.0 | |||||||
| 03 | 03:35 | N 8 | 10.00 | Fair | CLR | 59 | 55.4 | 88% | 30.03 | 0.0 | |||||||
| 03 | 03:15 | NW 8 | 10.00 | Fair | CLR | 59 | 55.4 | 88% | 30.03 | 0.0 | |||||||
| 03 | 02:55 | NW 8 | 10.00 | Partly Cloudy | SCT007 | 59 | 57.2 | 94% | 30.03 | 0.0 | |||||||
| 03 | 02:35 | NW 9 | 10.00 | Overcast | BKN007 OVC011 | 59 | 57.2 | 94% | 30.02 | 0.0 | |||||||
| 03 | 02:15 | NW 7 | 10.00 | Mostly Cloudy | BKN009 | 59 | 57.2 | 94% | 30.01 | 0.0 | |||||||
| 03 | 01:55 | N 7 | 10.00 | Partly Cloudy | SCT007 | 60.8 | 57.2 | 88% | 30.01 | 0.0 | |||||||
| 03 | 01:35 | N 7 | 10.00 | Fair | CLR | 60.8 | 57.2 | 88% | 30.01 | 0.0 | |||||||
| 03 | 01:15 | N 5 | 10.00 | Fair | CLR | 60.8 | 57.2 | 88% | 30.01 | 0.0 | |||||||
| 03 | 00:55 | N 7 | 10.00 | Partly Cloudy | SCT008 | 60.8 | 57.2 | 88% | 30 | 0.0 | |||||||
| 03 | 00:35 | N 6 | 10.00 | Partly Cloudy | SCT010 SCT015 | 60.8 | 57.2 | 88% | 30 | 0.0 | |||||||
| 03 | 00:15 | N 8 | 10.00 | Mostly Cloudy | SCT010 BKN015 | 62.6 | 59 | 88% | 29.99 | 0.0 | |||||||
| 02 | 23:55 | N 7 | 10.00 | Partly Cloudy | SCT010 SCT018 | 62.6 | 59 | 88% | 29.99 | 0.0 | |||||||
| 02 | 23:35 | N 6 | 10.00 | Overcast | BKN010 OVC018 | 62.6 | 59 | 88% | 29.98 | 0.0 | |||||||
| 02 | 23:15 | N 9 | 10.00 | Mostly Cloudy | BKN010 BKN018 BKN025 | 62.6 | 59 | 88% | 29.98 | 0.0 | |||||||
| 02 | 22:55 | N 9 | 10.00 | Mostly Cloudy | BKN025 | 62.6 | 57.2 | 83% | 29.98 | 0.0 | |||||||
| 02 | 22:35 | N 9 | 10.00 | Mostly Cloudy | BKN022 BKN028 | 62.6 | 57.2 | 83% | 29.97 | 0.0 | |||||||
| 02 | 22:15 | N 7 | 10.00 | Mostly Cloudy | BKN024 | 62.6 | 57.2 | 83% | 29.96 | 0.0 | |||||||
| 02 | 21:55 | N 9 | 10.00 | Mostly Cloudy | SCT014 BKN024 BKN036 | 62.6 | 57.2 | 83% | 29.95 | 0.0 | |||||||
| 02 | 21:35 | N 10 | 10.00 | Mostly Cloudy | SCT013 BKN029 BKN036 | 62.6 | 57.2 | 83% | 29.95 | 0.0 | |||||||
| 02 | 21:15 | N 7 | 10.00 | Overcast | SCT022 OVC030 | 62.6 | 57.2 | 83% | 29.94 | 0.0 | |||||||
| 02 | 20:55 | N 10 | 10.00 | Overcast | SCT012 OVC019 | 60.8 | 59 | 94% | 29.93 | 0.0 | |||||||
| 02 | 20:35 | N 12 | 7.00 | Overcast | OVC012 | 60.8 | 59 | 94% | 29.92 | 0.0 | |||||||
| 02 | 20:15 | N 8 | 10.00 | Overcast | BKN010 OVC017 | 62.6 | 59 | 88% | 29.92 | 0.0 | |||||||
| 02 | 19:55 | N 9 G 17 | 10.00 | Overcast | BKN008 OVC013 | 62.6 | 59 | 88% | 29.91 | 0.0 | |||||||
| 02 | 19:35 | N 14 | 7.00 | Fog/Mist | OVC006 | 62.6 | 59 | 88% | 29.9 | 0.0 | |||||||
| 02 | 19:15 | N 14 | 2.00 | Fog/Mist | OVC006 | 62.6 | 60.8 | 94% | 29.88 | 0.0 | |||||||
| 02 | 18:55 | N 15 G 20 | 7.00 | Fog/Mist | OVC006 | 62.6 | 60.8 | 94% | 29.87 | 0.0 | |||||||
| 02 | 18:35 | NW 13 G 18 | 10.00 | Overcast | BKN006 OVC010 | 64.4 | 60.8 | 88% | 29.86 | 0.0 | |||||||
| 02 | 18:15 | NW 14 | 7.00 | Overcast | OVC010 | 64.4 | 60.8 | 88% | 29.85 | 0.0 | |||||||
| 02 | 17:55 | NW 14 | 10.00 | Overcast | BKN010 OVC015 | 66.2 | 62.6 | 88% | 29.84 | 0.0 | |||||||
| 02 | 17:35 | N 12 | 10.00 | Overcast | BKN010 OVC015 | 68 | 62.6 | 83% | 29.83 | 0.0 | |||||||
| 02 | 17:15 | NW 12 | 10.00 | Overcast | BKN012 OVC019 | 68 | 62.6 | 83% | 29.82 | 0.0 | |||||||
| 02 | 16:55 | NW 9 | 10.00 | Overcast | OVC012 | 66.2 | 62.6 | 88% | 29.81 | 0.0 | |||||||
| 02 | 16:35 | NW 9 | 10.00 | Overcast | BKN010 OVC015 | 66.2 | 62.6 | 88% | 29.82 | 0.0 | |||||||
| 02 | 16:15 | NW 10 | 10.00 | Overcast | BKN009 BKN016 OVC021 | 66.2 | 64.4 | 94% | 29.82 | 0.0 | |||||||
| 02 | 15:55 | NW 9 | 10.00 | Overcast | SCT007 OVC012 | 66.2 | 64.4 | 94% | 29.82 | 0.0 | |||||||
| 02 | 15:35 | NW 10 | 3.50 | Light Rain Fog/Mist | BKN006 OVC015 | 66.2 | 64.4 | 94% | 29.82 | 0.0 | |||||||
| 02 | 15:15 | NW 9 | 10.00 | Overcast | OVC006 | 66.2 | 64.4 | 94% | 29.83 | 0.0 | |||||||
| 02 | 14:55 | N 6 | 10.00 | Light Rain | OVC006 | 66.2 | 64.4 | 94% | 29.82 | 0.0 | |||||||
| 02 | 14:35 | N 3 | 10.00 | Overcast | OVC006 | 66.2 | 64.4 | 94% | 29.8 | 0.0 | |||||||
| 02 | 14:15 | N 7 | 10.00 | Overcast | OVC006 | 68 | 64.4 | 88% | 29.81 | 0.0 | |||||||
| 02 | 13:55 | N 3 | 10.00 | Overcast | OVC004 | 68 | 66.2 | 94% | 29.82 | 0.0 | 0.03 | ||||||
| 02 | 13:35 | NW 8 | 10.00 | Overcast | BKN004 BKN020 OVC100 | 68 | 66.2 | 94% | 29.82 | 0.0 | 0.03 | ||||||
| 02 | 13:15 | N 6 | 7.00 | Light Rain Fog/Mist | SCT006 BKN020 OVC100 | 66.2 | 64.4 | 94% | 29.82 | 0.0 | 0.03 | ||||||
| 02 | 12:55 | NW 6 | 10.00 | Light Rain | BKN006 BKN009 OVC018 | 66.2 | 64.4 | 94% | 29.84 | 0.0 | 0.26 | ||||||
| 02 | 12:35 | NW 8 | 4.00 | Light Rain Fog/Mist | SCT004 BKN008 OVC021 | 66.2 | 64.4 | 94% | 29.84 | 0.0 | 0.24 | ||||||
| 02 | 12:15 | NW 9 | 4.00 | Rain Fog/Mist | SCT008 BKN018 OVC070 | 66.2 | 66.2 | 100% | 29.83 | 0.0 | 0.04 | ||||||
| 02 | 11:55 | E 9 | 7.00 | Light Rain Fog/Mist | SCT009 BKN070 OVC110 | 66.2 | 64.4 | 94% | 29.81 | 0.0 | 0.15 | ||||||
| 02 | 11:35 | NE 6 | 5.00 | Rain Fog/Mist | SCT005 BKN008 OVC017 | 64.4 | 62.6 | 94% | 29.83 | 0.0 | 0.13 | ||||||
| 02 | 11:15 | NE 3 | 2.50 | Rain Fog/Mist | BKN005 BKN023 OVC070 | 66.2 | 64.4 | 94% | 29.85 | 0.0 | 0.08 | ||||||
| 02 | 10:55 | E 9 | 1.25 | Thunderstorm Rain Fog/Mist | BKN019 OVC034 | 64.4 | 62.6 | 94% | 29.82 | 0.0 | 0.21 | ||||||
| 02 | 10:35 | NE 3 | 3.00 | Thunderstorm Rain Fog/Mist | BKN019 BKN041 OVC050 | 64.4 | 62.6 | 94% | 29.86 | 0.0 | 0.07 | ||||||
| 02 | 10:15 | N 8 | 4.00 | Thunderstorm Light Rain in Vicinity Fog/Mist | BKN019 BKN045 OVC120 | 64.4 | 60.8 | 88% | 29.85 | 0.0 | 0.01 | ||||||
| 02 | 09:55 | NW 6 | 7.00 | Light Rain | BKN017 BKN026 OVC080 | 64.4 | 60.8 | 88% | 29.87 | 0.0 | |||||||
| 02 | 09:35 | NW 10 | 10.00 | Light Rain | OVC019 | 66.2 | 60.8 | 83% | 29.88 | 0.0 | |||||||
| 02 | 09:15 | NW 8 | 7.00 | Mostly Cloudy | SCT019 BKN028 BKN035 | 68 | 62.6 | 83% | 29.87 | 0.0 | |||||||
| 02 | 08:55 | N 6 | 10.00 | Overcast | SCT031 SCT038 OVC060 | 66.2 | 60.8 | 83% | 29.84 | 0.0 | |||||||
| 02 | 08:35 | Calm | 10.00 | Mostly Cloudy | BKN065 | 68 | 60.8 | 78% | 29.85 | 0.0 | |||||||
| 02 | 08:15 | Calm | 10.00 | Partly Cloudy | SCT021 | 66.2 | 60.8 | 83% | 29.83 | 0.0 | |||||||
| 02 | 07:55 | N 3 | 10.00 | Overcast | OVC019 | 66.2 | 60.8 | 83% | 29.84 | 0.0 | |||||||
| 02 | 07:35 | NW 6 | 10.00 | Overcast | OVC021 | 66.2 | 60.8 | 83% | 29.84 | 0.0 | |||||||
| 02 | 07:15 | NW 6 | 10.00 | Overcast | OVC021 | 66.2 | 60.8 | 83% | 29.83 | 0.0 | |||||||
| 02 | 06:55 | Calm | 10.00 | Overcast | OVC021 | 66.2 | 60.8 | 83% | 29.83 | 0.0 | |||||||
| 02 | 06:35 | Calm | 10.00 | Overcast | OVC023 | 66.2 | 60.8 | 83% | 29.81 | 0.0 | |||||||
| 02 | 06:15 | Calm | 10.00 | Mostly Cloudy | BKN023 | 64.4 | 59 | 83% | 29.79 | 0.0 | |||||||
| 02 | 05:55 | N 5 | 10.00 | Mostly Cloudy | BKN025 | 64.4 | 59 | 83% | 29.81 | 0.0 | |||||||
| 02 | 05:35 | NW 6 | 10.00 | Fair | CLR | 64.4 | 59 | 83% | 29.82 | 0.0 | |||||||
| 02 | 05:15 | NE 6 | 10.00 | Fair | CLR | 66.2 | 59 | 78% | 29.78 | 0.0 | |||||||
| 02 | 04:55 | NE 6 | 10.00 | Fair | CLR | 66.2 | 59 | 78% | 29.8 | 0.0 | |||||||
| 02 | 04:35 | N 5 | 10.00 | Partly Cloudy | SCT045 | 66.2 | 59 | 78% | 29.84 | 0.0 | |||||||
| 02 | 04:15 | NW 6 | 10.00 | Overcast | OVC045 | 66.2 | 59 | 78% | 29.85 | 0.0 | |||||||
| 02 | 03:55 | N 8 | 10.00 | Mostly Cloudy | BKN045 | 66.2 | 60.8 | 83% | 29.86 | 0.0 | |||||||
| 02 | 03:35 | N 7 | 10.00 | Partly Cloudy | SCT023 SCT047 SCT075 | 66.2 | 60.8 | 83% | 29.87 | 0.0 | |||||||
| 02 | 03:15 | N 3 | 10.00 | Partly Cloudy | SCT039 | 66.2 | 60.8 | 83% | 29.86 | 0.0 | |||||||
| 02 | 02:35 | N 3 | 10.00 | Overcast | OVC043 | 68 | 60.8 | 78% | 29.87 | 0.0 | |||||||
| 02 | 02:15 | NW 3 | 10.00 | Overcast | OVC043 | 68 | 60.8 | 78% | 29.88 | 0.0 | |||||||
| 02 | 01:55 | NW 5 | 10.00 | Overcast | BKN045 BKN050 OVC080 | 68 | 62.6 | 83% | 29.88 | 0.0 | |||||||
| 02 | 01:35 | Calm | 10.00 | Overcast | SCT050 BKN065 OVC080 | 68 | 60.8 | 78% | 29.88 | 0.0 | |||||||
| 02 | 01:15 | Calm | 10.00 | Overcast | OVC050 | 68 | 60.8 | 78% | 29.88 | 0.0 | |||||||
| 02 | 00:55 | N 6 | 10.00 | Overcast | OVC060 | 69.8 | 62.6 | 78% | 29.88 | 0.0 | |||||||
| 02 | 00:35 | Calm | 10.00 | Overcast | OVC060 | 69.8 | 62.6 | 78% | 29.89 | 0.0 | |||||||
| 02 | 00:15 | N 3 | 10.00 | Overcast | OVC060 | 69.8 | 62.6 | 78% | 29.89 | 0.0 | |||||||
| 01 | 23:55 | N 5 | 10.00 | Overcast | OVC060 | 69.8 | 60.8 | 73% | 29.89 | 0.0 | |||||||
| 01 | 23:35 | W 5 | 10.00 | Overcast | BKN070 OVC075 | 69.8 | 60.8 | 73% | 29.9 | 0.0 | |||||||
| 01 | 23:15 | Calm | 10.00 | Mostly Cloudy | BKN065 | 68 | 60.8 | 78% | 29.88 | 0.0 | |||||||
| 01 | 22:55 | Calm | 10.00 | Partly Cloudy | SCT065 SCT075 SCT090 | 69.8 | 60.8 | 73% | 29.9 | 0.0 | |||||||
| 01 | 22:35 | N 5 | 10.00 | Mostly Cloudy | SCT075 BKN090 | 69.8 | 60.8 | 73% | 29.9 | 0.0 | |||||||
| 01 | 22:15 | N 5 | 10.00 | Mostly Cloudy | BKN075 | 69.8 | 60.8 | 73% | 29.91 | 0.0 | |||||||
| 01 | 21:55 | N 3 | 10.00 | Fair | CLR | 69.8 | 60.8 | 73% | 29.89 | 0.0 | |||||||
| 01 | 21:35 | NE 5 | 10.00 | Partly Cloudy | SCT095 | 69.8 | 60.8 | 73% | 29.88 | 0.0 | |||||||
| 01 | 21:15 | N 8 | 10.00 | Partly Cloudy | SCT095 | 69.8 | 60.8 | 73% | 29.88 | 0.0 | |||||||
| 01 | 20:55 | N 7 | 10.00 | Mostly Cloudy | BKN095 | 69.8 | 60.8 | 73% | 29.89 | 0.0 | |||||||
| 01 | 20:35 | N 9 | 10.00 | Mostly Cloudy | BKN095 | 71.6 | 59 | 65% | 29.89 | 0.0 | |||||||
| 01 | 20:15 | N 12 | 10.00 | Partly Cloudy | SCT095 | 71.6 | 60.8 | 69% | 29.88 | 0.0 | |||||||
| 01 | 19:55 | NE 15 G 20 | 10.00 | Partly Cloudy | SCT013 SCT075 SCT095 | 71.6 | 66.2 | 83% | 29.86 | 0.0 | |||||||
| 01 | 19:35 | NE 16 G 21 | 10.00 | Mostly Cloudy | SCT013 SCT050 BKN075 | 71.6 | 66.2 | 83% | 29.86 | 0.0 | |||||||
| 01 | 19:15 | NE 14 | 10.00 | Overcast | BKN050 BKN075 OVC085 | 73.4 | 66.2 | 78% | 29.86 | 0.0 | |||||||
| 01 | 18:55 | NE 9 | 10.00 | Overcast | BKN060 OVC065 | 73.4 | 66.2 | 78% | 29.85 | 0.0 | |||||||
| 01 | 18:35 | NE 13 | 10.00 | Overcast | BKN060 OVC065 | 75.2 | 64.4 | 69% | 77 | 29.84 | 0.0 | ||||||
| 01 | 18:15 | NE 12 | 10.00 | Overcast | SCT060 BKN065 OVC080 | 77 | 68 | 74% | 79 | 29.84 | 0.0 | ||||||
| 01 | 17:55 | NE 9 | 10.00 | Mostly Cloudy | SCT060 BKN080 | 77 | 64.4 | 65% | 79 | 29.84 | 0.0 | ||||||
| 01 | 17:35 | E 10 | 10.00 | Overcast | BKN070 OVC080 | 78.8 | 68 | 70% | 81 | 29.83 | 0.0 | ||||||
| 01 | 17:15 | NE 12 | 10.00 | Overcast | BKN055 OVC070 | 77 | 66.2 | 69% | 79 | 29.83 | 0.0 | ||||||
| 01 | 16:55 | NE 12 | 10.00 | Overcast | BKN055 BKN065 OVC085 | 77 | 68 | 74% | 79 | 29.83 | 0.0 | ||||||
| 01 | 16:35 | NE 14 | 10.00 | Overcast | BKN049 BKN065 OVC075 | 78.8 | 69.8 | 74% | 81 | 29.83 | 0.0 | ||||||
| 01 | 16:15 | E 7 | 10.00 | Overcast | BKN049 OVC065 | 78.8 | 68 | 70% | 81 | 29.84 | 0.0 | ||||||
| 01 | 15:55 | W 5 | 10.00 | Overcast | BKN049 OVC070 | 82.4 | 62.6 | 51% | 83 | 29.84 | 0.0 | ||||||
| 01 | 15:35 | NW 8 | 10.00 | Mostly Cloudy | BKN049 BKN060 | 84.2 | 62.6 | 48% | 85 | 29.85 | 0.0 | ||||||
| 01 | 15:15 | S 5 | 10.00 | Mostly Cloudy | BKN047 BKN055 | 84.2 | 62.6 | 48% | 85 | 29.86 | 0.0 | ||||||
| 01 | 14:55 | NW 7 | 10.00 | Overcast | BKN047 OVC060 | 82.4 | 62.6 | 51% | 83 | 29.85 | 0.0 | ||||||
| 01 | 14:35 | W 6 | 10.00 | Overcast | OVC045 | 82.4 | 62.6 | 51% | 83 | 29.87 | 0.0 | ||||||
| 01 | 14:15 | SW 8 | 10.00 | Mostly Cloudy | BKN045 | 82.4 | 62.6 | 51% | 83 | 29.87 | 0.0 | ||||||
| 01 | 13:55 | W 12 | 10.00 | Mostly Cloudy | BKN043 | 84.2 | 62.6 | 48% | 85 | 29.87 | 0.0 | ||||||
| 01 | 13:35 | W 13 | 10.00 | Mostly Cloudy | BKN043 BKN055 | 80.6 | 62.6 | 54% | 82 | 29.88 | 0.0 | ||||||
| 01 | 13:15 | W 9 | 10.00 | Mostly Cloudy | SCT039 BKN047 BKN055 | 82.4 | 64.4 | 55% | 84 | 29.89 | 0.0 | ||||||
| 01 | 12:55 | NW 9 | 10.00 | Mostly Cloudy | BKN039 BKN048 BKN060 | 80.6 | 64.4 | 58% | 82 | 29.89 | 0.0 | ||||||
| 01 | 12:35 | NW 7 | 10.00 | Mostly Cloudy | SCT030 BKN041 BKN049 | 80.6 | 66.2 | 62% | 83 | 29.9 | 0.0 | ||||||
| 01 | 12:15 | N 6 | 10.00 | Mostly Cloudy | SCT030 SCT036 BKN042 | 80.6 | 66.2 | 62% | 83 | 29.9 | 0.0 | ||||||
| 01 | 11:55 | Calm | 10.00 | Mostly Cloudy | SCT033 SCT042 BKN047 | 78.8 | 66.2 | 65% | 81 | 29.91 | 0.0 | ||||||
| 01 | 11:35 | N 3 | 10.00 | Overcast | SCT033 BKN040 OVC060 | 77 | 68 | 74% | 79 | 29.91 | 0.0 | ||||||
| 01 | 11:15 | W 6 | 10.00 | Partly Cloudy | SCT060 | 78.8 | 66.2 | 65% | 81 | 29.91 | 0.0 | ||||||
| 01 | 10:55 | W 6 | 10.00 | Fair | CLR | 77 | 69.8 | 79% | 79 | 29.91 | 0.0 | ||||||
| 01 | 10:35 | NW 7 | 7.00 | Fair | CLR | 77 | 69.8 | 79% | 79 | 29.91 | 0.0 | ||||||
| 01 | 10:15 | NW 5 | 7.00 | Fair with Haze | CLR | 77 | 69.8 | 79% | 79 | 29.9 | 0.0 | ||||||
| 01 | 09:55 | NW 5 | 5.00 | Partly Cloudy with Haze | SCT090 | 75.2 | 69.8 | 83% | 75 | 29.89 | 0.0 | ||||||
| 01 | 09:35 | NW 7 | 5.00 | Mostly Cloudy with Haze | BKN090 | 75.2 | 69.8 | 83% | 75 | 29.9 | 0.0 | ||||||
| 01 | 09:15 | N 5 | 5.00 | Partly Cloudy with Haze | SCT006 SCT100 | 73.4 | 68 | 83% | 29.9 | 0.0 | |||||||
| 01 | 08:55 | N 3 | 5.00 | Mostly Cloudy with Haze | BKN006 | 73.4 | 68 | 83% | 29.89 | 0.0 | |||||||
| 01 | 08:35 | NW 6 | 5.00 | Fog/Mist | BKN006 | 71.6 | 68 | 88% | 29.89 | 0.0 | |||||||
| 01 | 08:15 | NW 5 | 5.00 | Fog/Mist | CLR | 71.6 | 68 | 88% | 29.88 | 0.0 | |||||||
| 01 | 07:55 | Calm | 5.00 | Fog/Mist | CLR | 69.8 | 66.2 | 88% | 29.88 | 0.0 | |||||||
| 01 | 07:35 | N 3 | 5.00 | Fog/Mist | CLR | 69.8 | 66.2 | 88% | 29.88 | 0.0 | |||||||
| 01 | 07:15 | N 3 | 5.00 | Fog/Mist | CLR | 69.8 | 66.2 | 88% | 29.87 | 0.0 | |||||||
| 01 | 06:55 | N 3 | 7.00 | Fog/Mist | CLR | 69.8 | 66.2 | 88% | 29.86 | 0.0 | |||||||
| 01 | 06:35 | NW 5 | 7.00 | Fog/Mist | CLR | 69.8 | 66.2 | 88% | 29.86 | 0.0 | |||||||
| 01 | 06:15 | N 3 | 7.00 | Fair | CLR | 69.8 | 64.4 | 83% | 29.86 | 0.0 | |||||||
| 01 | 05:55 | NW 5 | 10.00 | Fair | CLR | 68 | 64.4 | 88% | 29.86 | 0.0 | |||||||
| 01 | 05:35 | N 5 | 10.00 | Fair | CLR | 68 | 62.6 | 83% | 29.85 | 0.0 | |||||||
| 01 | 05:15 | Calm | 10.00 | Fair | CLR | 68 | 62.6 | 83% | 29.84 | 0.0 | |||||||
| 01 | 04:55 | N 3 | 10.00 | Fair | CLR | 68 | 62.6 | 83% | 29.85 | 0.0 | |||||||
| 01 | 04:35 | N 7 | 10.00 | Fair | CLR | 69.8 | 62.6 | 78% | 29.86 | 0.0 | |||||||
| 01 | 04:15 | NW 8 | 10.00 | Fair | CLR | 69.8 | 62.6 | 78% | 29.85 | 0.0 | |||||||
| 01 | 03:55 | NW 6 | 10.00 | Fair | CLR | 68 | 60.8 | 78% | 29.85 | 0.0 | |||||||
| 01 | 03:35 | N 5 | 10.00 | Fair | CLR | 68 | 60.8 | 78% | 29.85 | 0.0 | |||||||
| 01 | 03:15 | NW 8 | 10.00 | Fair | CLR | 69.8 | 60.8 | 73% | 29.85 | 0.0 | |||||||
| 01 | 02:55 | NW 8 | 10.00 | Fair | CLR | 69.8 | 60.8 | 73% | 29.84 | 0.0 | |||||||
| 01 | 02:35 | NW 8 | 10.00 | Fair | CLR | 69.8 | 62.6 | 78% | 29.85 | 0.0 | |||||||
| 01 | 02:15 | W 8 | 10.00 | Fair | CLR | 69.8 | 62.6 | 78% | 29.85 | 0.0 | |||||||
| 01 | 01:55 | W 8 | 10.00 | Fair | CLR | 71.6 | 64.4 | 78% | 29.85 | 0.0 | |||||||
| Date | Time (edt) | Wind (mph) | Vis. (mi.) | Weather | Sky Cond. | Air | Dwpt | Max. | Min. | Relative Humidity | Wind Chill (°F) | Heat Index (°F) | altimeter (in) | sea level (mb) | 1 hr | 3 hr | 6 hr |
| 6 hour | |||||||||||||||||
| Temperature (ºF) | Pressure | Precipitation (in) | |||||||||||||||